createdAt,value
2022-11-05T00:01:54.846Z,97.73
2022-11-05T00:04:40.004Z,97.98
2022-11-05T00:07:31.759Z,98.16
2022-11-05T00:10:04.281Z,98.26
2022-11-05T00:12:54.164Z,98.20
2022-11-05T00:15:39.190Z,98.38
2022-11-05T00:18:05.708Z,98.53
2022-11-05T00:20:32.127Z,98.52
2022-11-05T00:23:22.352Z,98.46
2022-11-05T00:26:00.797Z,98.40
2022-11-05T00:28:29.394Z,98.34
2022-11-05T00:31:01.428Z,98.63
2022-11-05T00:33:28.128Z,98.79
2022-11-05T00:35:55.305Z,99.14
2022-11-05T00:38:21.746Z,99.18
2022-11-05T00:40:48.311Z,98.65
2022-11-05T00:43:33.432Z,98.44
2022-11-05T00:45:59.967Z,98.23
2022-11-05T00:48:45.149Z,98.53
2022-11-05T00:51:11.732Z,98.64
2022-11-05T00:53:38.148Z,98.39
2022-11-05T00:56:04.676Z,98.34
2022-11-05T00:58:31.105Z,98.08
2022-11-05T01:00:59.924Z,98.14
2022-11-05T01:03:32.660Z,98.14
2022-11-05T01:06:12.706Z,97.98
2022-11-05T01:08:40.404Z,98.05
2022-11-05T01:11:34.392Z,98.12
2022-11-05T01:14:02.823Z,98.12
2022-11-05T01:16:29.483Z,98.40
2022-11-05T01:18:55.940Z,98.44
2022-11-05T01:21:22.535Z,98.51
2022-11-05T01:23:49.199Z,98.59
2022-11-05T01:26:15.678Z,98.57
2022-11-05T01:28:42.223Z,98.76
2022-11-05T01:31:08.693Z,99.11
2022-11-05T01:33:35.189Z,99.04
2022-11-05T01:36:01.777Z,99.21
2022-11-05T01:38:28.190Z,99.27
2022-11-05T01:40:54.861Z,99.45
2022-11-05T01:43:23.207Z,99.36
2022-11-05T01:45:52.444Z,99.28
2022-11-05T01:48:23.049Z,99.33
2022-11-05T01:50:59.501Z,99.36
2022-11-05T01:53:48.483Z,99.51
2022-11-05T01:56:23.341Z,99.51
2022-11-05T01:58:57.480Z,99.67
2022-11-05T02:01:24.539Z,99.67
2022-11-05T02:03:54.568Z,100.00
2022-11-05T02:06:21.590Z,100.00
2022-11-05T02:09:08.919Z,100.00
2022-11-05T02:11:35.447Z,99.98
2022-11-05T02:14:01.910Z,100.00
2022-11-05T02:16:40.620Z,100.00
2022-11-05T02:19:19.495Z,100.00
2022-11-05T02:21:51.641Z,100.00
2022-11-05T02:24:31.424Z,100.00
2022-11-05T02:27:19.003Z,100.00
2022-11-05T02:30:04.339Z,100.00
2022-11-05T02:32:46.279Z,100.00
2022-11-05T02:35:29.530Z,100.00
2022-11-05T02:38:24.987Z,100.00
2022-11-05T02:41:12.337Z,100.00
2022-11-05T02:44:07.602Z,100.00
2022-11-05T02:46:54.251Z,100.00
2022-11-05T02:49:48.993Z,100.00
2022-11-05T02:52:25.143Z,100.00
2022-11-05T02:55:25.767Z,100.00
2022-11-05T02:57:52.331Z,100.00
2022-11-05T03:00:50.408Z,100.00
2022-11-05T03:03:27.824Z,100.00
2022-11-05T03:06:32.229Z,100.00
2022-11-05T03:09:43.478Z,100.00
2022-11-05T03:12:39.306Z,100.00
2022-11-05T03:15:39.248Z,100.00
2022-11-05T03:18:20.298Z,100.00
2022-11-05T03:21:06.385Z,100.00
2022-11-05T03:23:45.024Z,100.00
2022-11-05T03:26:18.561Z,100.00
2022-11-05T03:28:51.763Z,100.00
2022-11-05T03:31:20.265Z,100.00
2022-11-05T03:33:49.216Z,100.00
2022-11-05T03:36:27.085Z,100.00
2022-11-05T03:38:57.112Z,100.00
2022-11-05T03:41:25.482Z,100.00
2022-11-05T03:43:55.525Z,100.00
2022-11-05T03:46:29.760Z,100.00
2022-11-05T03:49:01.254Z,100.00
2022-11-05T03:51:51.222Z,100.00
2022-11-05T03:54:17.857Z,100.00
2022-11-05T03:57:29.571Z,100.00
2022-11-05T03:59:56.253Z,100.00
2022-11-05T04:02:25.983Z,100.00
2022-11-05T04:04:56.246Z,100.00
2022-11-05T04:07:41.394Z,100.00
2022-11-05T04:10:27.384Z,100.00
2022-11-05T04:13:12.862Z,100.00
2022-11-05T04:15:58.094Z,100.00
2022-11-05T04:18:24.504Z,100.00
2022-11-05T04:21:09.851Z,100.00
2022-11-05T04:23:54.691Z,100.00
2022-11-05T04:26:23.398Z,100.00
2022-11-05T04:29:09.150Z,100.00
2022-11-05T04:31:35.652Z,100.00
2022-11-05T04:34:02.174Z,100.00
2022-11-05T04:36:29.289Z,100.00
2022-11-05T04:38:56.135Z,100.00
2022-11-05T04:41:22.803Z,100.00
2022-11-05T04:43:49.541Z,100.00
2022-11-05T04:46:16.087Z,100.00
2022-11-05T04:48:42.542Z,100.00
2022-11-05T04:51:08.967Z,100.00
2022-11-05T04:53:35.540Z,100.00
2022-11-05T04:56:22.912Z,100.00
2022-11-05T04:58:50.049Z,100.00
2022-11-05T05:01:19.789Z,100.00
2022-11-05T05:03:53.965Z,100.00
2022-11-05T05:06:21.430Z,100.00
2022-11-05T05:08:49.629Z,100.00
2022-11-05T05:11:18.321Z,100.00
2022-11-05T05:13:45.369Z,100.00
2022-11-05T05:16:17.512Z,100.00
2022-11-05T05:18:46.424Z,100.00
2022-11-05T05:21:32.218Z,100.00
2022-11-05T05:23:58.770Z,100.00
2022-11-05T05:26:25.320Z,100.00
2022-11-05T05:28:53.650Z,100.00
2022-11-05T05:31:21.009Z,100.00
2022-11-05T05:33:47.443Z,100.00
2022-11-05T05:36:13.924Z,100.00
2022-11-05T05:38:40.625Z,100.00
2022-11-05T05:41:07.470Z,100.00
2022-11-05T05:43:34.466Z,100.00
2022-11-05T05:46:05.310Z,100.00
2022-11-05T05:48:32.079Z,100.00
2022-11-05T05:51:07.475Z,100.00
2022-11-05T05:53:34.247Z,100.00
2022-11-05T05:56:01.408Z,100.00
2022-11-05T05:58:32.556Z,100.00
2022-11-05T06:01:04.821Z,100.00
2022-11-05T06:03:31.612Z,100.00
2022-11-05T06:06:09.448Z,100.00
2022-11-05T06:08:36.700Z,100.00
2022-11-05T06:11:04.464Z,100.00
2022-11-05T06:13:31.461Z,100.00
2022-11-05T06:16:02.579Z,100.00
2022-11-05T06:18:30.477Z,100.00
2022-11-05T06:21:04.788Z,100.00
2022-11-05T06:23:33.392Z,100.00
2022-11-05T06:26:05.272Z,100.00
2022-11-05T06:28:32.053Z,100.00
2022-11-05T06:30:58.758Z,100.00
2022-11-05T06:33:25.830Z,100.00
2022-11-05T06:35:53.838Z,100.00
2022-11-05T06:38:20.607Z,100.00
2022-11-05T06:40:47.210Z,100.00
2022-11-05T06:43:14.150Z,100.00
2022-11-05T06:45:41.049Z,100.00
2022-11-05T06:48:07.484Z,100.00
2022-11-05T06:50:33.951Z,100.00
2022-11-05T06:53:02.456Z,100.00
2022-11-05T06:55:30.850Z,100.00
2022-11-05T06:57:57.965Z,100.00
2022-11-05T07:00:24.866Z,100.00
2022-11-05T07:02:51.452Z,100.00
2022-11-05T07:05:17.877Z,100.00
2022-11-05T07:07:45.664Z,100.00
2022-11-05T07:10:15.702Z,100.00
2022-11-05T07:12:42.584Z,100.00
2022-11-05T07:15:11.404Z,100.00
2022-11-05T07:17:38.624Z,100.00
2022-11-05T07:20:07.483Z,100.00
2022-11-05T07:22:35.647Z,100.00
2022-11-05T07:25:02.129Z,100.00
2022-11-05T07:27:28.962Z,100.00
2022-11-05T07:29:55.394Z,100.00
2022-11-05T07:32:22.040Z,100.00
2022-11-05T07:34:48.813Z,100.00
2022-11-05T07:37:16.789Z,100.00
2022-11-05T07:39:43.315Z,100.00
2022-11-05T07:42:13.564Z,100.00
2022-11-05T07:44:40.084Z,100.00
2022-11-05T07:47:06.964Z,100.00
2022-11-05T07:49:33.634Z,100.00
2022-11-05T07:52:00.231Z,100.00
2022-11-05T07:54:27.232Z,100.00
2022-11-05T07:56:56.789Z,100.00
2022-11-05T07:59:23.304Z,100.00
2022-11-05T08:01:50.069Z,100.00
2022-11-05T08:04:16.709Z,100.00
2022-11-05T08:06:43.356Z,100.00
2022-11-05T08:09:09.825Z,99.84
2022-11-05T08:11:36.357Z,99.77
2022-11-05T08:14:04.684Z,99.85
2022-11-05T08:16:31.087Z,99.27
2022-11-05T08:18:57.522Z,98.78
2022-11-05T08:21:23.973Z,98.82
2022-11-05T08:23:50.422Z,98.54
2022-11-05T08:26:16.947Z,97.81
2022-11-05T08:28:43.411Z,97.52
2022-11-05T08:31:09.846Z,96.96
2022-11-05T08:33:36.291Z,96.65
2022-11-05T08:36:04.491Z,97.28
2022-11-05T08:38:30.991Z,96.62
2022-11-05T08:40:58.473Z,95.91
2022-11-05T08:43:25.398Z,95.70
2022-11-05T08:45:51.893Z,95.79
2022-11-05T08:48:19.363Z,95.69
2022-11-05T08:50:47.388Z,95.89
2022-11-05T08:53:15.199Z,95.96
2022-11-05T08:55:41.885Z,96.20
2022-11-05T08:58:12.749Z,95.83
2022-11-05T09:00:39.849Z,95.12
2022-11-05T09:03:08.538Z,94.72
2022-11-05T09:05:37.855Z,94.33
2022-11-05T09:08:06.014Z,93.79
2022-11-05T09:10:32.846Z,93.49
2022-11-05T09:12:59.387Z,92.82
2022-11-05T09:15:25.947Z,92.91
2022-11-05T09:17:52.593Z,92.47
2022-11-05T09:20:19.554Z,91.65
2022-11-05T09:22:46.803Z,91.34
2022-11-05T09:25:15.703Z,91.03
2022-11-05T09:27:42.573Z,90.84
2022-11-05T09:30:11.162Z,91.07
2022-11-05T09:32:37.654Z,91.32
2022-11-05T09:35:05.568Z,90.46
2022-11-05T09:37:32.046Z,89.92
2022-11-05T09:39:58.555Z,89.28
2022-11-05T09:42:32.327Z,88.57
2022-11-05T09:45:08.123Z,87.54
2022-11-05T09:47:43.597Z,87.36
2022-11-05T09:50:18.906Z,86.85
2022-11-05T09:52:45.680Z,86.98
2022-11-05T09:55:29.193Z,86.92
2022-11-05T09:58:02.138Z,86.29
2022-11-05T10:00:29.906Z,86.79
2022-11-05T10:03:01.105Z,87.03
2022-11-05T10:05:28.639Z,87.24
2022-11-05T10:08:05.174Z,86.85
2022-11-05T10:10:52.448Z,86.59
2022-11-05T10:14:05.474Z,85.26
2022-11-05T10:16:39.556Z,84.80
2022-11-05T10:19:14.946Z,83.84
2022-11-05T10:22:05.528Z,82.31
2022-11-05T10:24:28.570Z,82.95
2022-11-05T10:26:56.064Z,82.03
2022-11-05T10:29:34.312Z,82.07
2022-11-05T10:32:05.652Z,81.73
2022-11-05T10:34:36.089Z,80.85
2022-11-05T10:37:03.669Z,80.53
2022-11-05T10:39:31.551Z,80.64
2022-11-05T10:42:26.653Z,80.37
2022-11-05T10:45:30.528Z,80.19
2022-11-05T10:48:02.885Z,79.96
2022-11-05T10:50:30.434Z,79.40
2022-11-05T10:53:04.405Z,79.50
2022-11-05T10:55:48.598Z,79.51
2022-11-05T10:58:20.875Z,79.13
2022-11-05T11:00:53.403Z,77.57
2022-11-05T11:03:44.066Z,76.96
2022-11-05T11:06:37.773Z,76.01
2022-11-05T11:09:08.516Z,73.73
2022-11-05T11:11:41.537Z,74.10
2022-11-05T11:14:14.064Z,72.93
2022-11-05T11:16:43.426Z,71.92
2022-11-05T11:19:28.397Z,71.36
2022-11-05T11:22:03.998Z,71.59
2022-11-05T11:24:37.802Z,69.70
2022-11-05T11:27:27.000Z,68.86
2022-11-05T11:30:01.884Z,67.69
2022-11-05T11:32:36.358Z,66.06
2022-11-05T11:35:04.437Z,65.63
2022-11-05T11:37:41.982Z,63.96
2022-11-05T11:40:14.521Z,62.71
2022-11-05T11:42:46.443Z,61.61
2022-11-05T11:45:28.315Z,61.14
2022-11-05T11:47:56.541Z,60.29
2022-11-05T11:50:44.268Z,59.01
2022-11-05T11:53:19.888Z,58.25
2022-11-05T11:55:55.610Z,57.69
2022-11-05T11:58:25.226Z,56.43
2022-11-05T12:01:05.410Z,55.58
2022-11-05T12:03:41.359Z,54.69
2022-11-05T12:06:14.672Z,53.52
2022-11-05T12:09:06.495Z,52.92
2022-11-05T12:12:02.477Z,52.64
2022-11-05T12:14:58.312Z,50.20
2022-11-05T12:17:44.412Z,49.82
2022-11-05T12:20:22.705Z,47.34
2022-11-05T12:23:12.895Z,46.10
2022-11-05T12:25:52.411Z,45.25
2022-11-05T12:28:27.994Z,43.97
2022-11-05T12:31:13.573Z,43.16
2022-11-05T12:33:59.517Z,41.75
2022-11-05T12:36:47.019Z,41.54
2022-11-05T12:39:13.371Z,42.11
2022-11-05T12:42:08.261Z,41.48
2022-11-05T12:44:53.451Z,41.79
2022-11-05T12:47:26.000Z,40.76
2022-11-05T12:50:07.100Z,39.98
2022-11-05T12:52:33.507Z,38.47
2022-11-05T12:55:10.314Z,38.76
2022-11-05T12:57:41.429Z,39.62
2022-11-05T13:00:14.758Z,39.63
2022-11-05T13:03:17.041Z,38.72
2022-11-05T13:05:48.471Z,39.01
2022-11-05T13:08:21.607Z,38.84
2022-11-05T13:10:51.845Z,38.92
2022-11-05T13:13:18.339Z,38.91
2022-11-05T13:15:53.848Z,37.99
2022-11-05T13:18:28.068Z,37.63
2022-11-05T13:20:56.439Z,37.87
2022-11-05T13:23:50.042Z,37.64
2022-11-05T13:26:54.928Z,37.14
2022-11-05T13:29:31.342Z,36.56
2022-11-05T13:32:33.262Z,37.03
2022-11-05T13:35:03.004Z,36.77
2022-11-05T13:37:58.292Z,36.89
2022-11-05T13:40:48.107Z,37.48
2022-11-05T13:43:23.877Z,37.30
2022-11-05T13:46:08.613Z,37.05
2022-11-05T13:48:52.919Z,37.03
2022-11-05T13:51:56.721Z,36.86
2022-11-05T13:54:29.242Z,35.70
2022-11-05T13:57:29.947Z,35.44
2022-11-05T14:00:28.449Z,35.21
2022-11-05T14:02:59.346Z,34.89
2022-11-05T14:05:33.311Z,35.12
2022-11-05T14:08:02.416Z,35.33
2022-11-05T14:10:38.405Z,35.59
2022-11-05T14:13:20.019Z,36.00
2022-11-05T14:15:57.684Z,36.23
2022-11-05T14:18:44.500Z,36.07
2022-11-05T14:21:26.222Z,36.14
2022-11-05T14:24:27.347Z,36.43
2022-11-05T14:27:02.952Z,37.86
2022-11-05T14:29:44.267Z,39.96
2022-11-05T14:32:16.706Z,41.80
2022-11-05T14:34:46.129Z,42.22
2022-11-05T14:37:17.929Z,43.27
2022-11-05T14:39:45.705Z,45.16
2022-11-05T14:42:15.136Z,46.95
2022-11-05T14:45:02.050Z,48.95
2022-11-05T14:47:32.935Z,50.92
2022-11-05T14:50:11.638Z,52.23
2022-11-05T14:52:40.071Z,53.89
2022-11-05T14:55:22.987Z,54.84
2022-11-05T14:57:52.966Z,56.12
2022-11-05T15:00:28.498Z,57.53
2022-11-05T15:03:22.843Z,58.45
2022-11-05T15:05:49.991Z,59.51
2022-11-05T15:08:37.415Z,60.01
2022-11-05T15:11:13.143Z,60.75
2022-11-05T15:14:02.600Z,61.20
2022-11-05T15:16:58.020Z,62.15
2022-11-05T15:19:32.967Z,62.94
2022-11-05T15:22:03.402Z,63.29
2022-11-05T15:24:31.536Z,63.60
2022-11-05T15:27:22.312Z,64.02
2022-11-05T15:29:48.795Z,64.27
2022-11-05T15:32:23.452Z,64.71
2022-11-05T15:34:55.675Z,65.21
2022-11-05T15:37:26.373Z,65.60
2022-11-05T15:39:55.510Z,65.91
2022-11-05T15:42:25.418Z,66.16
2022-11-05T15:44:54.505Z,66.36
2022-11-05T15:47:31.074Z,66.73
2022-11-05T15:50:14.099Z,67.04
2022-11-05T15:52:49.834Z,67.39
2022-11-05T15:55:23.640Z,67.47
2022-11-05T15:57:58.965Z,67.69
2022-11-05T16:00:28.614Z,67.85
2022-11-05T16:02:59.748Z,68.16
2022-11-05T16:05:29.244Z,68.18
2022-11-05T16:07:59.053Z,68.70
2022-11-05T16:10:31.476Z,68.93
2022-11-05T16:12:58.333Z,68.98
2022-11-05T16:15:34.354Z,69.08
2022-11-05T16:18:01.587Z,69.11
2022-11-05T16:20:33.826Z,69.26
2022-11-05T16:23:03.218Z,69.28
2022-11-05T16:25:29.619Z,69.74
2022-11-05T16:28:00.550Z,69.88
2022-11-05T16:30:27.936Z,70.10
2022-11-05T16:32:55.276Z,70.30
2022-11-05T16:35:25.066Z,70.61
2022-11-05T16:37:52.796Z,70.79
2022-11-05T16:40:24.164Z,71.09
2022-11-05T16:42:52.946Z,71.18
2022-11-05T16:45:22.629Z,71.52
2022-11-05T16:47:49.477Z,71.38
2022-11-05T16:50:17.582Z,71.74
2022-11-05T16:52:46.270Z,71.73
2022-11-05T16:55:14.726Z,71.95
2022-11-05T16:57:43.780Z,72.03
2022-11-05T17:00:15.078Z,72.49
2022-11-05T17:02:42.190Z,72.78
2022-11-05T17:05:21.300Z,72.81
2022-11-05T17:07:47.751Z,72.95
2022-11-05T17:10:14.749Z,73.23
2022-11-05T17:12:42.103Z,73.20
2022-11-05T17:15:31.198Z,73.37
2022-11-05T17:17:59.509Z,73.17
2022-11-05T17:20:40.791Z,73.26
2022-11-05T17:23:29.860Z,73.07
2022-11-05T17:26:02.108Z,73.26
2022-11-05T17:28:29.321Z,73.30
2022-11-05T17:31:01.733Z,73.27
2022-11-05T17:33:28.651Z,73.27
2022-11-05T17:35:56.152Z,73.40
2022-11-05T17:38:24.791Z,73.51
2022-11-05T17:40:51.872Z,73.54
2022-11-05T17:43:20.000Z,73.76
2022-11-05T17:45:50.010Z,73.94
2022-11-05T17:48:16.934Z,73.83
2022-11-05T17:50:47.615Z,74.04
2022-11-05T17:53:17.190Z,74.16
2022-11-05T17:55:45.539Z,73.83
2022-11-05T17:58:12.352Z,74.06
2022-11-05T18:00:40.076Z,74.17
2022-11-05T18:03:06.680Z,74.07
2022-11-05T18:05:34.688Z,74.10
2022-11-05T18:08:01.368Z,74.13
2022-11-05T18:10:27.958Z,74.17
2022-11-05T18:12:54.570Z,74.26
2022-11-05T18:15:21.233Z,74.40
2022-11-05T18:17:47.907Z,74.28
2022-11-05T18:20:19.217Z,74.53
2022-11-05T18:22:48.792Z,74.73
2022-11-05T18:25:15.911Z,74.65
2022-11-05T18:27:42.552Z,74.89
2022-11-05T18:30:11.001Z,74.75
2022-11-05T18:32:38.865Z,74.92
2022-11-05T18:35:06.713Z,74.88
2022-11-05T18:37:33.100Z,74.71
2022-11-05T18:39:59.630Z,74.96
2022-11-05T18:42:26.156Z,74.94
2022-11-05T18:44:52.629Z,75.17
2022-11-05T18:47:19.242Z,74.89
2022-11-05T18:49:45.784Z,75.01
2022-11-05T18:52:12.266Z,74.81
2022-11-05T18:54:38.860Z,74.87
2022-11-05T18:57:05.320Z,74.97
2022-11-05T18:59:39.733Z,74.85
2022-11-05T19:02:08.719Z,74.50
2022-11-05T19:04:36.652Z,74.54
2022-11-05T19:07:05.394Z,74.48
2022-11-05T19:09:36.504Z,74.39
2022-11-05T19:12:03.931Z,74.20
2022-11-05T19:14:30.837Z,74.18
2022-11-05T19:16:58.851Z,74.25
2022-11-05T19:19:25.670Z,74.45
2022-11-05T19:21:52.394Z,74.09
2022-11-05T19:24:19.089Z,74.36
2022-11-05T19:26:46.770Z,73.90
2022-11-05T19:29:13.425Z,74.04
2022-11-05T19:31:40.039Z,74.22
2022-11-05T19:34:06.445Z,74.18
2022-11-05T19:36:33.956Z,74.18
2022-11-05T19:39:04.670Z,73.89
2022-11-05T19:41:31.231Z,73.70
2022-11-05T19:44:02.051Z,73.45
2022-11-05T19:46:30.191Z,73.42
2022-11-05T19:48:56.906Z,73.59
2022-11-05T19:51:26.296Z,73.15
2022-11-05T19:53:55.090Z,73.34
2022-11-05T19:56:24.645Z,72.96
2022-11-05T19:58:53.076Z,73.21
2022-11-05T20:01:21.746Z,72.85
2022-11-05T20:03:48.725Z,73.18
2022-11-05T20:06:28.565Z,72.88
2022-11-05T20:11:45.330Z,72.60
2022-11-05T20:14:11.863Z,72.74
2022-11-05T20:16:39.107Z,72.62
2022-11-05T20:19:12.660Z,72.62
2022-11-05T20:21:39.846Z,72.66
2022-11-05T20:24:06.874Z,72.63
2022-11-05T20:26:33.932Z,72.58
2022-11-05T20:29:00.570Z,72.63
2022-11-05T20:31:27.063Z,72.57
2022-11-05T20:33:53.650Z,72.68
2022-11-05T20:36:22.883Z,72.72
2022-11-05T20:38:50.714Z,72.56
2022-11-05T20:41:18.015Z,72.44
2022-11-05T20:43:45.365Z,72.41
2022-11-05T20:46:15.521Z,72.54
2022-11-05T20:48:43.036Z,72.31
2022-11-05T20:51:12.017Z,72.62
2022-11-05T20:53:39.363Z,72.26
2022-11-05T20:56:09.639Z,72.26
2022-11-05T20:58:37.992Z,72.43
2022-11-05T21:01:05.791Z,72.40
2022-11-05T21:03:32.829Z,72.47
2022-11-05T21:06:04.655Z,72.45
2022-11-05T21:08:32.494Z,72.66
2022-11-05T21:10:59.711Z,72.91
2022-11-05T21:13:27.453Z,72.82
2022-11-05T21:15:57.532Z,73.13
2022-11-05T21:18:27.040Z,73.31
2022-11-05T21:20:53.876Z,73.63
2022-11-05T21:23:21.237Z,73.15
2022-11-05T21:25:48.608Z,73.32
2022-11-05T21:28:15.754Z,73.45
2022-11-05T21:30:47.751Z,73.38
2022-11-05T21:33:15.724Z,73.35
2022-11-05T21:35:47.727Z,73.04
2022-11-05T21:38:16.372Z,72.98
2022-11-05T21:40:44.017Z,73.10
2022-11-05T21:43:10.653Z,73.31
2022-11-05T21:45:41.937Z,73.00
2022-11-05T21:48:09.707Z,72.95
2022-11-05T21:50:58.000Z,72.97
2022-11-05T21:53:43.776Z,72.56
2022-11-05T21:56:35.077Z,72.44
2022-11-05T21:59:20.202Z,72.71
2022-11-05T22:01:46.817Z,72.63
2022-11-05T22:04:13.424Z,72.74
2022-11-05T22:06:39.900Z,72.77
2022-11-05T22:09:06.913Z,72.67
2022-11-05T22:11:37.436Z,72.66
2022-11-05T22:14:04.321Z,72.76
2022-11-05T22:16:30.814Z,72.71
2022-11-05T22:18:58.012Z,72.84
2022-11-05T22:21:24.643Z,73.02
2022-11-05T22:23:52.216Z,73.43
2022-11-05T22:26:18.925Z,73.43
2022-11-05T22:28:45.546Z,73.76
2022-11-05T22:31:13.752Z,73.43
2022-11-05T22:33:40.245Z,73.58
2022-11-05T22:36:07.235Z,74.03
2022-11-05T22:38:33.814Z,74.26
2022-11-05T22:41:06.496Z,74.18
2022-11-05T22:43:33.133Z,74.33
2022-11-05T22:46:08.366Z,74.56
2022-11-05T22:48:36.328Z,74.81
2022-11-05T22:51:11.191Z,74.90
2022-11-05T22:53:39.332Z,74.99
2022-11-05T22:56:08.700Z,75.51
2022-11-05T22:58:35.864Z,75.30
2022-11-05T23:01:03.893Z,75.38
2022-11-05T23:03:31.792Z,75.53
2022-11-05T23:06:32.254Z,75.88
2022-11-05T23:09:18.534Z,75.85
2022-11-05T23:11:49.485Z,76.05
2022-11-05T23:14:16.331Z,75.87
2022-11-05T23:17:02.160Z,75.98
2022-11-05T23:19:48.457Z,76.42
2022-11-05T23:22:43.169Z,76.35
2022-11-05T23:25:13.422Z,76.78
2022-11-05T23:27:41.308Z,76.73
2022-11-05T23:30:11.893Z,76.87
2022-11-05T23:32:39.080Z,77.11
2022-11-05T23:35:06.689Z,77.06
2022-11-05T23:37:51.984Z,77.41
2022-11-05T23:40:22.123Z,77.27
2022-11-05T23:43:07.283Z,77.41
2022-11-05T23:45:49.502Z,77.70
2022-11-05T23:48:36.841Z,77.67
2022-11-05T23:51:06.736Z,77.97
2022-11-05T23:53:36.177Z,78.32
2022-11-05T23:56:14.499Z,78.31
2022-11-05T23:58:42.014Z,78.96
